Time;durP1;ratioP1;P1;durP2;ratioP2;P2;SDS_P1;SDS_P2;PMS_P1;PMS_P2;Temp;Humidity;BMP_temperature;BMP_pressure;BME280_temperature;BME280_humidity;BME280_pressure;Samples;Min_cycle;Max_cycle;Signal;HPM_P1;HPM_P2
2023/04/01 00:01:04;;;;;;;7.97;3.42;;;;;;;-1.08;71.96;97580.66;6341936;28;20035;-67
2023/04/01 00:04:08;;;;;;;8.40;4.65;;;;;;;-1.09;72.04;97588.44;6322014;28;20059;-68
2023/04/01 00:07:15;;;;;;;11.60;4.57;;;;;;;-1.11;71.96;97585.84;6325276;28;20453;-68
2023/04/01 00:10:19;;;;;;;11.82;5.78;;;;;;;-1.15;72.55;97584.19;6326626;28;20050;-67
2023/04/01 00:13:27;;;;;;;12.77;4.97;;;;;;;-1.22;72.75;97574.75;6330488;28;20048;-68
2023/04/01 00:16:33;;;;;;;12.02;6.03;;;;;;;-1.26;72.59;97589.41;6330218;28;20055;-68
2023/04/01 00:19:40;;;;;;;8.43;4.95;;;;;;;-1.29;73.02;97575.66;6322267;28;20036;-67
2023/04/01 00:22:44;;;;;;;12.57;5.20;;;;;;;-1.27;73.29;97573.94;6312721;28;20078;-67
2023/04/01 00:25:51;;;;;;;12.70;5.18;;;;;;;-1.26;72.95;97570.47;6325765;28;20054;-68
2023/04/01 00:28:56;;;;;;;23.80;10.95;;;;;;;-1.23;73.28;97580.78;6321415;28;20063;-68
2023/04/01 00:31:59;;;;;;;13.63;6.00;;;;;;;-1.24;73.09;97584.25;6321196;28;20044;-69
2023/04/01 00:35:04;;;;;;;;;;;;;;;-1.25;73.57;97582.50;6322041;28;20044;-68
2023/04/01 00:38:11;;;;;;;9.67;4.33;;;;;;;-1.29;72.84;97591.16;6326758;28;19920;-67
2023/04/01 00:41:18;;;;;;;8.48;5.18;;;;;;;-1.27;73.16;97579.97;6337543;28;20051;-68
2023/04/01 00:44:31;;;;;;;11.05;4.88;;;;;;;-1.27;72.86;97584.28;6320974;28;20534;-68
2023/04/01 00:47:39;;;;;;;10.95;3.63;;;;;;;-1.38;73.39;97551.63;6333213;28;20040;-68
2023/04/01 00:50:50;;;;;;;7.55;4.43;;;;;;;-1.26;72.84;97561.00;6320493;28;20048;-67
2023/04/01 00:53:57;;;;;;;14.20;5.07;;;;;;;-1.13;72.71;97572.13;6321247;28;20066;-69
2023/04/01 00:57:06;;;;;;;7.57;4.15;;;;;;;-1.09;72.83;97576.38;6315021;28;20051;-68
2023/04/01 01:00:13;;;;;;;11.98;5.32;;;;;;;-1.04;72.71;97572.03;6330213;28;20036;-68
2023/04/01 01:03:18;;;;;;;10.60;5.40;;;;;;;-1.01;72.80;97566.00;6320665;28;20417;-68
2023/04/01 01:06:39;;;;;;;7.65;4.30;;;;;;;-0.93;72.33;97567.66;6324510;28;20434;-68
2023/04/01 01:10:05;;;;;;;10.05;5.15;;;;;;;-0.94;72.52;97573.66;6290652;28;20062;-68
2023/04/01 01:13:28;;;;;;;14.15;5.30;;;;;;;-0.96;73.18;97584.91;6334192;28;20052;-68
2023/04/01 01:16:39;;;;;;;12.25;5.43;;;;;;;-0.99;72.60;97570.28;6327189;28;20147;-68
2023/04/01 01:19:57;;;;;;;12.82;5.28;;;;;;;-1.04;73.15;97560.84;6302968;28;20044;-67
2023/04/01 01:23:19;;;;;;;12.38;5.32;;;;;;;-1.09;72.55;97558.28;6332511;28;20040;-68
2023/04/01 01:26:39;;;;;;;10.80;5.97;;;;;;;-1.08;73.20;97562.59;6338830;28;20047;-68
2023/04/01 01:30:04;;;;;;;11.90;5.75;;;;;;;-1.07;73.26;97574.66;6326683;28;20124;-68
2023/04/01 01:33:45;;;;;;;9.55;5.70;;;;;;;-0.98;73.00;97565.97;6320229;28;20421;-68
2023/04/01 01:36:57;;;;;;;12.32;6.15;;;;;;;-0.87;72.71;97582.25;6340385;28;20055;-68
2023/04/01 01:40:09;;;;;;;15.65;6.07;;;;;;;-0.74;72.67;97585.56;6341743;28;20427;-69
2023/04/01 01:43:18;;;;;;;15.23;7.07;;;;;;;-0.58;72.68;97570.78;6321607;28;20874;-68
2023/04/01 01:46:28;;;;;;;14.98;6.75;;;;;;;-0.40;72.37;97570.59;6333692;28;20039;-68
2023/04/01 01:49:36;;;;;;;14.75;6.68;;;;;;;-0.26;72.16;97578.19;6341550;28;20520;-68
2023/04/01 01:52:40;;;;;;;15.00;6.35;;;;;;;-0.22;71.73;97564.38;6324335;28;20435;-69
2023/04/01 01:55:48;;;;;;;11.75;6.28;;;;;;;-0.11;71.65;97572.88;6327428;28;20050;-68
2023/04/01 01:58:57;;;;;;;17.10;6.90;;;;;;;0.05;71.04;97588.22;6332407;28;20058;-68
2023/04/01 02:02:07;;;;;;;12.55;6.15;;;;;;;0.12;71.13;97571.75;6320268;28;20197;-68
2023/04/01 02:05:16;;;;;;;11.10;6.30;;;;;;;0.34;70.29;97586.13;6339135;28;20063;-68
2023/04/01 02:08:42;;;;;;;13.65;6.78;;;;;;;0.46;69.97;97584.28;6322954;28;20491;-68
2023/04/01 02:11:59;;;;;;;13.60;6.80;;;;;;;0.47;69.78;97580.78;6320412;28;20417;-68
2023/04/01 02:15:10;;;;;;;15.98;7.38;;;;;;;0.47;70.22;97579.06;6319536;28;20420;-68
2023/04/01 02:18:17;;;;;;;17.50;7.85;;;;;;;0.52;69.43;97568.66;6319591;28;20036;-68
2023/04/01 02:21:21;;;;;;;19.17;8.68;;;;;;;0.59;69.98;97567.66;6328257;28;20043;-68
2023/04/01 02:24:28;;;;;;;19.95;8.77;;;;;;;0.70;69.09;97551.97;6341263;28;20039;-68
2023/04/01 02:27:35;;;;;;;24.10;9.27;;;;;;;0.86;69.12;97564.69;6327058;28;20043;-68
2023/04/01 02:30:41;;;;;;;16.75;8.45;;;;;;;0.97;68.15;97571.44;6331001;28;20048;-68
2023/04/01 02:33:45;;;;;;;20.98;8.82;;;;;;;1.06;68.46;97571.28;6320109;28;20044;-68
2023/04/01 02:36:49;;;;;;;18.08;9.15;;;;;;;1.06;68.03;97559.19;6303732;28;20048;-69
2023/04/01 02:39:50;;;;;;;19.30;9.15;;;;;;;1.15;68.05;97559.91;6335691;28;20040;-68
2023/04/01 02:42:57;;;;;;;25.33;10.30;;;;;;;1.19;67.77;97572.81;6325837;28;20048;-67
2023/04/01 02:46:08;;;;;;;27.95;9.55;;;;;;;1.25;67.68;97575.28;6318118;28;20052;-68
2023/04/01 02:49:12;;;;;;;23.60;10.30;;;;;;;1.27;67.86;97570.91;6319188;28;20040;-69
2023/04/01 02:52:13;;;;;;;22.55;9.90;;;;;;;1.32;67.30;97569.09;6329538;28;20055;-68
2023/04/01 02:55:15;;;;;;;20.80;9.65;;;;;;;1.43;67.61;97565.50;6324840;28;20047;-67
2023/04/01 02:58:19;;;;;;;21.70;9.73;;;;;;;1.48;67.17;97568.88;6330870;28;20491;-68
2023/04/01 03:01:24;;;;;;;18.48;8.77;;;;;;;1.54;67.55;97566.16;6333294;28;20138;-68
2023/04/01 03:04:29;;;;;;;19.00;8.48;;;;;;;1.57;66.71;97566.94;6340245;28;20051;-68
2023/04/01 03:07:36;;;;;;;30.08;14.27;;;;;;;1.57;66.72;97584.25;6323517;28;20050;-69
2023/04/01 03:10:49;;;;;;;18.67;9.35;;;;;;;1.50;67.07;97582.63;6332383;28;20039;-69
2023/04/01 03:13:51;;;;;;;23.93;8.37;;;;;;;1.43;67.73;97581.91;6336189;28;20138;-68
2023/04/01 03:16:58;;;;;;;20.50;7.97;;;;;;;1.43;66.73;97568.09;6335775;28;20040;-68
2023/04/01 03:20:10;;;;;;;20.50;8.73;;;;;;;1.44;67.11;97577.56;6328820;28;20047;-68
2023/04/01 03:23:20;;;;;;;20.02;7.93;;;;;;;1.42;67.23;97577.59;6324830;28;20036;-68
2023/04/01 03:26:26;;;;;;;18.67;8.40;;;;;;;1.44;66.75;97587.94;6322845;28;20519;-68
2023/04/01 03:29:32;;;;;;;17.92;7.40;;;;;;;1.39;67.22;97567.28;6325153;28;20113;-69
2023/04/01 03:32:37;;;;;;;19.73;7.93;;;;;;;1.57;67.24;97564.34;6330549;28;20040;-69
2023/04/01 03:35:39;;;;;;;17.52;7.75;;;;;;;2.28;66.14;97588.94;6322321;28;20193;-69
2023/04/01 03:38:45;;;;;;;22.95;7.72;;;;;;;2.91;64.69;97591.03;6322566;28;20070;-70
2023/04/01 03:41:49;;;;;;;21.35;8.73;;;;;;;3.34;63.33;97583.97;6328966;28;20409;-71
2023/04/01 03:44:54;;;;;;;20.10;7.72;;;;;;;3.75;62.41;97589.88;6336499;28;20536;-69
2023/04/01 03:48:00;;;;;;;23.75;7.50;;;;;;;4.15;61.50;97600.06;6336791;28;20074;-69
2023/04/01 03:51:07;;;;;;;17.27;7.72;;;;;;;4.50;60.61;97604.28;6311578;28;20044;-69
2023/04/01 03:54:11;;;;;;;20.25;7.78;;;;;;;4.93;59.65;97605.63;6325210;28;20028;-69
2023/04/01 03:57:16;;;;;;;20.77;8.05;;;;;;;5.20;59.15;97600.44;6328088;28;20039;-69
2023/04/01 04:00:20;;;;;;;25.00;7.68;;;;;;;5.13;58.80;97591.09;6326438;28;20127;-69
2023/04/01 04:03:21;;;;;;;18.65;7.18;;;;;;;5.16;58.97;97597.06;6333253;28;20188;-68
2023/04/01 04:06:27;;;;;;;18.10;7.18;;;;;;;5.33;58.46;97606.97;6345161;28;20493;-68
2023/04/01 04:09:33;;;;;;;26.90;7.53;;;;;;;5.76;57.37;97602.94;6329842;28;20065;-68
2023/04/01 04:12:45;;;;;;;21.27;8.13;;;;;;;6.46;56.47;97604.88;6329806;28;20051;-69
2023/04/01 04:15:52;;;;;;;20.58;8.05;;;;;;;7.27;54.85;97607.88;6320375;28;20047;-69
2023/04/01 04:18:58;;;;;;;23.25;7.93;;;;;;;7.83;53.54;97612.56;6327933;28;20039;-69
2023/04/01 04:22:02;;;;;;;17.35;8.85;;;;;;;8.17;52.08;97616.38;6340781;28;20040;-68
2023/04/01 04:25:04;;;;;;;18.23;6.25;;;;;;;8.42;51.45;97617.03;6327599;28;20043;-68
2023/04/01 04:28:14;;;;;;;14.88;4.38;;;;;;;8.71;50.28;97617.50;6303720;28;20043;-67
2023/04/01 04:31:21;;;;;;;13.13;5.00;;;;;;;8.61;49.64;97605.75;6324284;28;20185;-68
2023/04/01 04:34:23;;;;;;;11.60;4.28;;;;;;;8.73;50.03;97605.16;6337907;28;20169;-69
2023/04/01 04:37:27;;;;;;;10.18;4.03;;;;;;;8.81;48.67;97597.81;6329377;28;20064;-68
2023/04/01 04:40:32;;;;;;;8.32;3.10;;;;;;;8.84;48.42;97600.28;6339483;28;20321;-69
2023/04/01 04:43:33;;;;;;;5.32;1.80;;;;;;;8.81;47.87;97607.47;6336326;28;20058;-69
2023/04/01 04:46:36;;;;;;;6.20;2.55;;;;;;;8.66;48.21;97614.22;6333697;28;20048;-68
2023/04/01 04:49:42;;;;;;;4.25;2.22;;;;;;;8.48;48.25;97616.75;6343766;28;20051;-68
2023/04/01 04:52:49;;;;;;;4.70;2.53;;;;;;;8.20;48.21;97611.00;6332865;28;20044;-70
2023/04/01 04:55:55;;;;;;;4.68;1.83;;;;;;;7.92;48.52;97612.19;6339886;28;20061;-67
2023/04/01 04:59:05;;;;;;;4.97;2.50;;;;;;;7.57;49.11;97611.88;6337048;28;20040;-70
2023/04/01 05:02:09;;;;;;;6.53;2.13;;;;;;;7.42;49.27;97607.28;6322555;28;20050;-68
2023/04/01 05:05:13;;;;;;;7.30;2.13;;;;;;;7.33;49.67;97591.94;6321495;28;20044;-69
2023/04/01 05:08:14;;;;;;;6.75;2.70;;;;;;;7.40;49.61;97599.47;6319558;28;20044;-69
2023/04/01 05:11:21;;;;;;;6.65;2.40;;;;;;;7.49;49.69;97597.41;6326613;28;20083;-69
2023/04/01 05:14:26;;;;;;;4.47;2.00;;;;;;;7.47;49.15;97600.06;6325668;28;20142;-69
2023/04/01 05:17:27;;;;;;;4.70;1.90;;;;;;;7.31;48.65;97599.00;6343856;28;20043;-69
2023/04/01 05:20:31;;;;;;;5.43;1.63;;;;;;;7.10;49.21;97601.53;6339487;28;20114;-69
2023/04/01 05:23:39;;;;;;;3.08;1.83;;;;;;;6.97;49.46;97609.03;6320356;28;20121;-69
2023/04/01 05:26:44;;;;;;;6.05;2.00;;;;;;;7.07;49.06;97614.75;6333665;28;20059;-69
2023/04/01 05:29:45;;;;;;;4.28;1.48;;;;;;;9.28;44.90;97613.06;6338604;28;20135;-69
2023/04/01 05:32:51;;;;;;;2.25;1.25;;;;;;;13.52;37.59;97616.56;6327447;28;20039;-70
2023/04/01 05:35:56;;;;;;;3.47;1.25;;;;;;;17.57;32.66;97616.22;6339904;28;20054;-69
2023/04/01 05:39:03;;;;;;;1.98;1.17;;;;;;;20.76;28.62;97606.09;6329675;28;20040;-69
2023/04/01 05:42:07;;;;;;;1.83;1.00;;;;;;;22.41;25.43;97607.78;6328514;28;20382;-69
2023/04/01 05:45:09;;;;;;;2.25;0.93;;;;;;;23.50;23.27;97596.53;6337795;28;20059;-69
2023/04/01 05:48:12;;;;;;;2.28;0.98;;;;;;;24.70;22.71;97605.06;6338536;28;20048;-70
2023/04/01 05:51:17;;;;;;;3.80;1.15;;;;;;;25.48;20.83;97599.81;6319003;28;20056;-69
2023/04/01 05:54:23;;;;;;;1.23;0.57;;;;;;;26.47;20.12;97605.41;6342536;28;20058;-69
2023/04/01 05:57:28;;;;;;;3.10;0.82;;;;;;;28.20;18.65;97595.06;6334139;28;20415;-69
2023/04/01 06:00:32;;;;;;;5.45;0.88;;;;;;;28.86;17.60;97596.69;6334689;28;20056;-69
2023/04/01 06:03:35;;;;;;;2.22;0.75;;;;;;;29.51;17.20;97589.16;6333982;28;20059;-69
2023/04/01 06:06:40;;;;;;;2.20;0.90;;;;;;;29.51;16.80;97583.72;6329678;28;20302;-69
2023/04/01 06:09:47;;;;;;;2.03;0.70;;;;;;;29.35;16.02;97584.88;6331243;28;20174;-68
2023/04/01 06:13:10;;;;;;;2.05;0.70;;;;;;;28.71;16.11;97577.00;6336018;28;20332;-70
2023/04/01 06:16:45;;;;;;;1.67;0.80;;;;;;;29.00;15.51;97582.19;6318896;28;20047;-70
2023/04/01 06:20:12;;;;;;;1.77;0.68;;;;;;;28.08;16.01;97577.69;6328950;28;20052;-69
2023/04/01 06:23:39;;;;;;;5.00;2.08;;;;;;;27.07;16.61;97565.84;6335344;28;20040;-68
2023/04/01 06:26:52;;;;;;;2.80;0.80;;;;;;;27.49;16.65;97561.63;6333050;28;20043;-69
2023/04/01 06:30:16;;;;;;;1.92;0.88;;;;;;;28.78;15.69;97561.63;6320214;28;20051;-72
2023/04/01 06:33:29;;;;;;;8.18;1.30;;;;;;;30.16;14.88;97565.13;6327107;28;20048;-69
2023/04/01 06:37:04;;;;;;;2.97;0.90;;;;;;;30.90;13.77;97569.56;6325953;28;20055;-68
2023/04/01 06:40:16;;;;;;;3.40;0.93;;;;;;;31.38;13.79;97565.69;6337463;28;20043;-68
2023/04/01 06:44:01;;;;;;;2.17;0.70;;;;;;;31.61;12.85;97552.41;6333862;28;20032;-68
2023/04/01 06:47:29;;;;;;;3.13;0.93;;;;;;;30.93;12.91;97565.59;6325311;28;20127;-68
2023/04/01 06:51:05;;;;;;;5.22;1.95;;;;;;;31.31;13.34;97552.94;6327559;28;20087;-68
2023/04/01 06:54:17;;;;;;;4.68;1.35;;;;;;;31.50;12.94;97550.38;6301670;28;20493;-67
2023/04/01 06:57:29;;;;;;;1.77;0.95;;;;;;;31.69;12.66;97543.16;6330886;28;20394;-68
2023/04/01 07:00:37;;;;;;;3.58;0.80;;;;;;;32.38;12.42;97539.56;6325329;28;20231;-71
2023/04/01 07:03:49;;;;;;;5.63;1.27;;;;;;;32.53;12.05;97549.34;6330299;28;20531;-71
2023/04/01 07:06:58;;;;;;;2.42;1.08;;;;;;;32.46;11.68;97548.56;6344482;28;20043;-71
2023/04/01 07:10:25;;;;;;;4.47;1.10;;;;;;;32.54;12.27;97562.72;6312962;28;20149;-73
2023/04/01 07:13:36;;;;;;;3.05;0.60;;;;;;;31.96;12.12;97554.75;6333031;28;20059;-73
2023/04/01 07:16:50;;;;;;;2.17;0.55;;;;;;;31.99;11.77;97546.16;6329850;28;20088;-72
2023/04/01 07:20:34;;;;;;;0.55;0.40;;;;;;;31.68;12.25;97542.34;6330828;28;20515;-74
2023/04/01 07:23:50;;;;;;;2.40;0.60;;;;;;;29.94;13.14;97546.31;6291469;28;20063;-72
2023/04/01 07:26:58;;;;;;;4.93;0.90;;;;;;;29.81;12.80;97557.16;6327386;28;20036;-73
2023/04/01 07:30:12;;;;;;;3.40;0.90;;;;;;;30.78;12.50;97566.63;6326015;28;20047;-73
2023/04/01 07:33:28;;;;;;;3.28;1.27;;;;;;;31.94;11.79;97565.03;6328910;28;20092;-74
2023/04/01 07:36:51;;;;;;;2.28;0.40;;;;;;;32.12;11.66;97564.28;6325480;28;20052;-72
2023/04/01 07:40:11;;;;;;;4.72;1.25;;;;;;;30.93;12.29;97555.53;6331698;28;20416;-73
2023/04/01 07:43:31;;;;;;;1.58;0.50;;;;;;;31.07;12.15;97556.34;6346266;28;20122;-73
2023/04/01 07:46:57;;;;;;;3.42;0.80;;;;;;;31.27;11.85;97546.25;6335421;28;20129;-73
2023/04/01 07:50:18;;;;;;;3.20;0.73;;;;;;;31.61;11.41;97546.97;6337345;28;20040;-72
2023/04/01 07:53:34;;;;;;;2.60;0.47;;;;;;;31.07;11.94;97540.03;6342936;28;20039;-73
2023/04/01 07:56:59;;;;;;;2.67;0.68;;;;;;;29.41;12.71;97539.88;6328462;28;20052;-74
2023/04/01 08:00:14;;;;;;;2.50;0.60;;;;;;;28.75;13.05;97521.38;6322034;28;20138;-72
2023/04/01 08:03:49;;;;;;;2.05;0.90;;;;;;;29.09;12.89;97515.16;6331165;28;20048;-70
2023/04/01 08:07:10;;;;;;;4.15;2.00;;;;;;;29.05;12.99;97520.13;6333971;28;20219;-69
2023/04/01 08:10:39;;;;;;;3.78;1.50;;;;;;;29.14;12.61;97525.38;6331286;28;20414;-68
2023/04/01 08:14:25;;;;;;;4.35;0.60;;;;;;;29.16;12.63;97499.75;6343731;28;20067;-68
2023/04/01 08:17:33;;;;;;;3.85;0.55;;;;;;;29.05;12.41;97505.75;6321738;28;20081;-67
2023/04/01 08:20:46;;;;;;;4.25;0.68;;;;;;;28.68;12.59;97512.38;6340872;28;20047;-70
2023/04/01 08:23:54;;;;;;;4.03;0.52;;;;;;;27.94;13.08;97495.56;6320920;28;20044;-70
2023/04/01 08:27:03;;;;;;;1.58;0.60;;;;;;;28.75;12.80;97521.38;6344014;28;20046;-69
2023/04/01 08:30:35;;;;;;;3.67;0.60;;;;;;;28.96;12.75;97506.91;6344069;28;20110;-70
2023/04/01 08:33:41;;;;;;;5.07;0.80;;;;;;;28.21;13.05;97488.50;6333320;28;20074;-67
2023/04/01 08:36:55;;;;;;;2.88;0.93;;;;;;;29.42;12.67;97504.44;6317552;28;20488;-69
2023/04/01 08:40:09;;;;;;;5.10;0.70;;;;;;;29.87;12.50;97488.50;6345256;28;20420;-67
2023/04/01 08:43:54;;;;;;;3.90;0.67;;;;;;;30.34;12.63;97505.66;6321690;28;20044;-67
2023/04/01 08:47:15;;;;;;;7.22;0.98;;;;;;;29.56;13.02;97488.22;6327496;28;20081;-68
2023/04/01 08:50:28;;;;;;;3.35;0.68;;;;;;;29.48;12.99;97497.38;6321558;28;20534;-67
2023/04/01 08:54:07;;;;;;;3.53;1.52;;;;;;;28.95;13.40;97492.53;6334688;28;20044;-68
2023/04/01 08:57:23;;;;;;;4.20;0.50;;;;;;;28.35;13.42;97489.44;6338505;28;20044;-68
2023/04/01 09:00:32;;;;;;;1.10;0.55;;;;;;;27.92;13.92;97494.91;6327114;28;20417;-69
2023/04/01 09:04:07;;;;;;;4.07;0.85;;;;;;;28.04;13.64;97500.63;6325498;28;20049;-69
2023/04/01 09:07:29;;;;;;;1.85;0.63;;;;;;;27.88;13.52;97503.59;6311809;28;20044;-69
2023/04/01 09:10:53;;;;;;;3.83;1.10;;;;;;;28.45;13.40;97508.09;6331078;28;20100;-69
2023/04/01 09:14:29;;;;;;;1.83;0.50;;;;;;;28.37;13.46;97506.31;6330963;28;20052;-68
2023/04/01 09:17:55;;;;;;;4.80;0.50;;;;;;;27.48;14.24;97495.06;6329281;28;20059;-67
2023/04/01 09:21:05;;;;;;;2.17;0.75;;;;;;;27.66;14.23;97492.78;6340944;28;20141;-69
2023/04/01 09:24:36;;;;;;;4.68;0.77;;;;;;;28.11;14.12;97501.53;6331086;28;20044;-68
2023/04/01 09:27:58;;;;;;;3.00;0.60;;;;;;;27.84;14.39;97494.22;6327497;28;20131;-67
2023/04/01 09:31:34;;;;;;;2.47;0.60;;;;;;;26.99;14.42;97490.31;6332564;28;20047;-68
2023/04/01 09:34:49;;;;;;;1.48;0.85;;;;;;;26.39;14.76;97489.44;6307560;28;20126;-68
2023/04/01 09:38:19;;;;;;;1.80;0.60;;;;;;;26.73;14.15;97491.63;6318968;28;20497;-67
2023/04/01 09:41:36;;;;;;;3.00;0.70;;;;;;;27.07;14.30;97492.91;6318984;28;20082;-67
2023/04/01 09:44:44;;;;;;;1.38;0.50;;;;;;;27.04;14.56;97482.47;6331014;28;20429;-67
2023/04/01 09:48:25;;;;;;;3.28;0.73;;;;;;;27.24;14.76;97483.59;6301276;28;20500;-66
2023/04/01 09:51:44;;;;;;;3.75;0.77;;;;;;;26.64;15.36;97487.34;6329623;28;20032;-68
2023/04/01 09:55:18;;;;;;;1.02;0.55;;;;;;;26.36;15.11;97474.47;6329503;28;20291;-68
2023/04/01 09:58:51;;;;;;;2.97;0.82;;;;;;;25.76;15.58;97467.25;6316961;28;20051;-67
2023/04/01 10:02:20;;;;;;;4.78;1.05;;;;;;;25.23;15.94;97466.25;6315706;28;20533;-67
2023/04/01 10:05:42;;;;;;;5.75;1.45;;;;;;;25.65;15.84;97457.72;6321617;28;20488;-67
2023/04/01 10:09:09;;;;;;;3.25;0.90;;;;;;;25.39;15.78;97462.59;6327521;28;20040;-67
2023/04/01 10:12:28;;;;;;;4.80;0.80;;;;;;;25.91;15.28;97464.63;6330978;28;20040;-68
2023/04/01 10:15:40;;;;;;;3.15;0.77;;;;;;;25.63;14.78;97467.00;6330867;28;20123;-68
2023/04/01 10:19:07;;;;;;;1.58;0.80;;;;;;;24.86;15.66;97454.31;6330935;28;20146;-67
2023/04/01 10:22:12;;;;;;;1.02;0.60;;;;;;;24.64;15.69;97462.13;6327642;28;20162;-67
2023/04/01 10:25:35;;;;;;;4.63;1.25;;;;;;;24.35;16.62;97457.31;6313575;28;20048;-73
2023/04/01 10:29:14;;;;;;;5.20;1.65;;;;;;;24.52;16.79;97468.91;6335731;28;20036;-71
2023/04/01 10:32:41;;;;;;;4.53;1.40;;;;;;;24.65;16.35;97458.41;6330314;28;20055;-68
2023/04/01 10:36:06;;;;;;;7.50;4.25;;;;;;;24.03;16.75;97458.19;6340239;28;20130;-68
2023/04/01 10:39:22;;;;;;;3.97;1.83;;;;;;;23.47;17.47;97458.00;6324076;28;20539;-64
2023/04/01 10:42:48;;;;;;;4.97;2.10;;;;;;;23.55;18.10;97451.78;6319264;28;20063;-64
2023/04/01 10:46:11;;;;;;;5.30;1.90;;;;;;;23.52;17.57;97465.56;6332471;28;20043;-69
2023/04/01 10:49:34;;;;;;;3.63;2.03;;;;;;;22.48;18.53;97461.38;6331900;28;20968;-67
2023/04/01 10:52:53;;;;;;;10.35;3.90;;;;;;;21.95;19.06;97463.19;6329538;28;20453;-63
2023/04/01 10:56:10;;;;;;;10.13;4.30;;;;;;;21.94;19.06;97458.00;6324351;28;20043;-66
2023/04/01 10:59:29;;;;;;;98.00;63.47;;;;;;;22.04;19.33;97453.34;6327182;28;20051;-65
2023/04/01 11:03:11;;;;;;;69.78;53.75;;;;;;;22.59;18.90;97457.53;6327640;28;20043;-69
2023/04/01 11:06:40;;;;;;;22.60;16.20;;;;;;;22.86;18.69;97462.69;6330216;28;20036;-68
2023/04/01 11:09:56;;;;;;;22.15;15.82;;;;;;;22.33;19.12;97463.78;6295738;28;20048;-66
2023/04/01 11:13:39;;;;;;;24.30;12.25;;;;;;;21.10;20.56;97453.03;6327231;28;20081;-64
2023/04/01 11:17:09;;;;;;;11.88;6.18;;;;;;;20.52;21.57;97443.44;6303843;28;20424;-64
2023/04/01 11:20:39;;;;;;;10.32;4.30;;;;;;;20.11;21.92;97441.09;6303514;28;20051;-64
2023/04/01 11:24:28;;;;;;;11.45;5.10;;;;;;;20.38;21.88;97428.75;6287089;28;20047;-65
2023/04/01 11:28:01;;;;;;;10.65;2.92;;;;;;;20.00;22.53;97438.59;6228527;28;20494;-64
2023/04/01 11:31:14;;;;;;;4.78;2.33;;;;;;;20.08;22.02;97436.03;6238957;28;20044;-65
2023/04/01 11:34:28;;;;;;;6.35;2.60;;;;;;;20.20;22.21;97428.69;6345224;28;20047;-64
2023/04/01 11:38:00;;;;;;;6.68;2.05;;;;;;;20.21;21.81;97418.81;6322812;28;20537;-65
2023/04/01 11:41:07;;;;;;;4.35;2.00;;;;;;;20.45;21.74;97427.19;6331333;28;20059;-64
2023/04/01 11:44:22;;;;;;;5.55;1.73;;;;;;;20.30;22.01;97431.34;6331218;28;20040;-64
2023/04/01 11:48:08;;;;;;;4.95;1.30;;;;;;;20.01;22.33;97428.75;6322712;28;20100;-64
2023/04/01 11:51:32;;;;;;;2.90;0.70;;;;;;;19.52;22.16;97439.47;6340600;28;20141;-63
2023/04/01 11:54:51;;;;;;;2.65;1.08;;;;;;;18.87;22.99;97422.31;6330832;28;20063;-64
2023/04/01 11:58:40;;;;;;;4.00;1.02;;;;;;;18.50;23.59;97436.22;6313561;28;20477;-65
2023/04/01 12:02:02;;;;;;;2.70;0.80;;;;;;;18.15;24.11;97432.16;6272094;28;20093;-64
2023/04/01 12:05:55;;;;;;;6.30;3.05;;;;;;;18.20;24.17;97429.91;6336364;28;20242;-64
2023/04/01 12:09:15;;;;;;;3.42;0.90;;;;;;;18.06;24.26;97433.81;6269178;28;20072;-64
2023/04/01 12:12:55;;;;;;;8.35;1.38;;;;;;;17.59;24.40;97427.19;6331457;28;20055;-65
2023/04/01 12:16:24;;;;;;;5.88;1.08;;;;;;;17.01;25.05;97420.44;6325101;28;20136;-64
2023/04/01 12:19:34;;;;;;;1.75;0.98;;;;;;;16.51;24.72;97417.38;6321477;28;20052;-64
2023/04/01 12:22:53;;;;;;;4.43;1.20;;;;;;;16.39;24.72;97431.66;6324449;28;20047;-66
2023/04/01 12:26:16;;;;;;;3.72;1.15;;;;;;;16.25;24.83;97421.25;6327658;28;20174;-64
2023/04/01 12:29:48;;;;;;;3.65;0.65;;;;;;;15.68;25.40;97421.22;6321953;28;20122;-65
2023/04/01 12:33:13;;;;;;;3.45;0.85;;;;;;;15.23;26.18;97412.28;6324170;28;20412;-63
2023/04/01 12:36:34;;;;;;;1.55;0.70;;;;;;;14.82;26.92;97430.25;6324908;28;20055;-65
2023/04/01 12:40:07;;;;;;;3.08;0.65;;;;;;;14.72;27.36;97418.66;6335052;28;20051;-64
2023/04/01 12:43:22;;;;;;;2.45;0.90;;;;;;;14.49;27.75;97427.38;6320683;28;20101;-65
2023/04/01 12:46:35;;;;;;;2.00;0.80;;;;;;;14.06;28.34;97417.19;6320605;28;20054;-64
2023/04/01 12:49:49;;;;;;;4.10;0.70;;;;;;;13.89;28.64;97419.22;6306919;28;20044;-64
2023/04/01 12:52:56;;;;;;;6.50;1.25;;;;;;;14.17;28.60;97416.44;6344759;28;20134;-64
2023/04/01 12:55:58;;;;;;;2.35;0.85;;;;;;;13.83;28.91;97413.50;6344013;28;20042;-64
2023/04/01 12:59:20;;;;;;;3.08;0.80;;;;;;;13.79;30.19;97418.19;6338119;28;20448;-64
2023/04/01 13:02:58;;;;;;;1.80;0.70;;;;;;;13.41;31.00;97423.44;6342822;28;20054;-65
2023/04/01 13:06:24;;;;;;;2.40;0.70;;;;;;;13.27;31.18;97421.72;6319731;28;20044;-65
2023/04/01 13:09:33;;;;;;;1.52;0.70;;;;;;;13.02;31.62;97428.59;6324889;28;20052;-64
2023/04/01 13:13:01;;;;;;;3.25;0.65;;;;;;;13.04;31.47;97437.25;6327530;28;20048;-65
2023/04/01 13:16:27;;;;;;;2.92;1.10;;;;;;;12.86;31.48;97441.13;6318360;28;20051;-64
2023/04/01 13:19:52;;;;;;;2.00;0.77;;;;;;;12.39;32.34;97439.72;6307098;28;20052;-64
2023/04/01 13:23:11;;;;;;;1.73;0.88;;;;;;;12.28;32.89;97442.19;6320278;28;20178;-65
2023/04/01 13:26:34;;;;;;;1.98;1.30;;;;;;;11.93;33.99;97449.66;6325572;28;20238;-64
2023/04/01 13:30:01;;;;;;;1.00;0.70;;;;;;;11.75;34.72;97457.72;6321266;28;20413;-64
2023/04/01 13:33:20;;;;;;;2.58;1.05;;;;;;;11.14;35.60;97462.16;6321439;28;20039;-65
2023/04/01 13:36:27;;;;;;;2.78;1.20;;;;;;;10.70;36.44;97459.41;6338008;28;20135;-63
2023/04/01 13:39:28;;;;;;;3.38;1.08;;;;;;;10.29;37.19;97450.25;6328235;28;20052;-68
2023/04/01 13:42:43;;;;;;;1.52;0.65;;;;;;;9.94;38.23;97448.66;6334894;28;20166;-65
2023/04/01 13:46:06;;;;;;;1.27;0.60;;;;;;;9.78;38.62;97459.94;6324054;28;20052;-68
2023/04/01 13:49:39;;;;;;;3.80;0.98;;;;;;;9.89;38.84;97452.34;6316019;28;20412;-68
2023/04/01 13:53:21;;;;;;;2.55;0.95;;;;;;;9.49;39.42;97452.75;6328350;28;20481;-67
2023/04/01 13:57:00;;;;;;;0.98;0.80;;;;;;;9.27;40.01;97464.31;6338448;28;20051;-67
2023/04/01 14:00:35;;;;;;;3.05;1.13;;;;;;;9.04;40.94;97451.50;6319862;28;20051;-69
2023/04/01 14:04:15;;;;;;;2.38;1.13;;;;;;;8.89;41.52;97448.72;6322748;28;20044;-69
2023/04/01 14:07:29;;;;;;;2.47;0.93;;;;;;;8.58;42.41;97453.72;6334095;28;20489;-68
2023/04/01 14:10:41;;;;;;;3.15;0.82;;;;;;;8.28;42.82;97459.44;6319528;28;20099;-68
2023/04/01 14:13:56;;;;;;;1.40;0.85;;;;;;;8.20;43.68;97458.94;6323970;28;20046;-68
2023/04/01 14:17:13;;;;;;;3.25;0.98;;;;;;;7.97;44.44;97468.72;6320201;28;20101;-68
2023/04/01 14:20:37;;;;;;;3.03;1.13;;;;;;;7.76;44.51;97465.28;6323516;28;20051;-68
2023/04/01 14:23:39;;;;;;;;;;;;;;;7.74;44.46;97466.28;6321501;28;20408;-69
2023/04/01 14:26:56;;;;;;;1.85;0.85;;;;;;;7.53;45.95;97474.16;6341753;28;19915;-69
2023/04/01 14:30:02;;;;;;;2.47;1.25;;;;;;;7.28;46.34;97470.88;6334332;28;20048;-68
2023/04/01 14:33:32;;;;;;;2.08;1.00;;;;;;;7.09;47.38;97469.00;6332621;28;20040;-67
2023/04/01 14:36:50;;;;;;;5.72;1.15;;;;;;;6.88;47.31;97475.09;6343300;28;20488;-68
2023/04/01 14:40:20;;;;;;;2.30;0.90;;;;;;;6.85;47.63;97494.41;6325973;28;20043;-68
2023/04/01 14:43:41;;;;;;;2.45;1.05;;;;;;;6.78;48.28;97489.47;6323717;28;20040;-69
2023/04/01 14:47:04;;;;;;;3.88;1.60;;;;;;;6.55;49.14;97493.84;6337423;28;20051;-68
2023/04/01 14:50:17;;;;;;;4.63;1.77;;;;;;;6.41;49.65;97493.53;6333010;28;20424;-68
2023/04/01 14:53:33;;;;;;;5.13;1.48;;;;;;;6.29;49.77;97497.47;6348304;28;20051;-69
2023/04/01 14:56:46;;;;;;;8.93;1.90;;;;;;;6.33;49.41;97503.44;6338969;28;20134;-70
2023/04/01 14:59:54;;;;;;;4.53;1.50;;;;;;;6.23;49.66;97502.94;6347165;28;20153;-69
2023/04/01 15:03:20;;;;;;;2.13;1.40;;;;;;;6.22;49.75;97512.50;6347976;28;20031;-68
2023/04/01 15:06:35;;;;;;;6.00;1.77;;;;;;;6.10;49.68;97510.38;6337050;28;20436;-68
2023/04/01 15:09:43;;;;;;;3.83;1.58;;;;;;;6.01;49.74;97519.38;6347298;28;20051;-68
2023/04/01 15:13:10;;;;;;;7.70;1.50;;;;;;;5.94;50.01;97532.72;6344440;28;20035;-70
2023/04/01 15:16:32;;;;;;;2.45;1.25;;;;;;;5.82;50.43;97534.81;6325888;28;20134;-70
2023/04/01 15:19:39;;;;;;;3.42;1.35;;;;;;;5.73;50.69;97540.38;6339621;28;20134;-69
2023/04/01 15:22:55;;;;;;;3.85;1.83;;;;;;;5.54;50.69;97549.75;6345722;28;20453;-70